createdAt,value
2018-05-06T00:01:58.795Z,102774.08
2018-05-06T00:04:26.423Z,102781.77
2018-05-06T00:06:54.114Z,102778.55
2018-05-06T00:09:21.737Z,102779.64
2018-05-06T00:11:49.338Z,102781.20
2018-05-06T00:14:17.012Z,102778.07
2018-05-06T00:16:44.617Z,102778.71
2018-05-06T00:19:12.246Z,102781.54
2018-05-06T00:21:39.850Z,102780.56
2018-05-06T00:24:07.561Z,102783.03
2018-05-06T00:26:35.210Z,102782.05
2018-05-06T00:29:02.883Z,102777.98
2018-05-06T00:31:30.490Z,102781.75
2018-05-06T00:33:58.203Z,102783.30
2018-05-06T00:36:25.810Z,102781.41
2018-05-06T00:38:53.434Z,102778.64
2018-05-06T00:41:21.039Z,102783.60
2018-05-06T00:43:48.752Z,102788.06
2018-05-06T00:46:16.360Z,102783.52
2018-05-06T00:48:44.016Z,102782.83
2018-05-06T00:51:11.661Z,102784.38
2018-05-06T00:53:39.395Z,102781.56
2018-05-06T00:56:07.005Z,102780.15
2018-05-06T00:58:34.662Z,102787.79
2018-05-06T01:01:02.273Z,102786.84
2018-05-06T01:03:29.946Z,102788.80
2018-05-06T01:05:57.592Z,102790.82
2018-05-06T01:08:25.195Z,102793.72
2018-05-06T01:10:52.836Z,102789.33
2018-05-06T01:13:20.456Z,102785.04
2018-05-06T01:15:48.164Z,102785.80
2018-05-06T01:18:15.822Z,102786.08
2018-05-06T01:20:43.446Z,102787.09
2018-05-06T01:23:11.127Z,102789.00
2018-05-06T01:25:38.720Z,102793.55
2018-05-06T01:28:06.336Z,102795.05
2018-05-06T01:30:33.962Z,102795.75
2018-05-06T01:33:01.566Z,102794.29
2018-05-06T01:35:29.204Z,102794.19
2018-05-06T01:37:56.818Z,102795.02
2018-05-06T01:40:24.477Z,102791.41
2018-05-06T01:42:52.097Z,102790.84
2018-05-06T01:45:20.434Z,102794.17
2018-05-06T01:47:48.089Z,102784.89
2018-05-06T01:50:15.717Z,102775.67
2018-05-06T01:52:43.326Z,102781.47
2018-05-06T01:55:10.953Z,102773.10
2018-05-06T01:57:38.561Z,102772.91
2018-05-06T02:00:06.187Z,102771.45
2018-05-06T02:02:33.845Z,102769.14
2018-05-06T02:05:01.511Z,102767.27
2018-05-06T02:07:29.178Z,102767.48
2018-05-06T02:09:56.839Z,102768.06
2018-05-06T02:12:24.499Z,102772.66
2018-05-06T02:14:52.171Z,102772.83
2018-05-06T02:17:19.795Z,102778.24
2018-05-06T02:19:47.433Z,102777.56
2018-05-06T02:22:15.066Z,102783.01
2018-05-06T02:24:42.674Z,102783.28
2018-05-06T02:27:10.311Z,102784.41
2018-05-06T02:29:37.922Z,102783.31
2018-05-06T02:32:05.555Z,102787.45
2018-05-06T02:34:33.167Z,102789.80
2018-05-06T02:37:00.818Z,102778.75
2018-05-06T02:39:28.482Z,102780.17
2018-05-06T02:41:56.146Z,102787.91
2018-05-06T02:44:23.811Z,102786.64
2018-05-06T02:46:51.474Z,102783.23
2018-05-06T02:49:19.070Z,102782.89
2018-05-06T02:51:46.699Z,102785.56
2018-05-06T02:54:14.363Z,102781.41
2018-05-06T02:56:42.018Z,102781.22
2018-05-06T02:59:09.618Z,102774.97
2018-05-06T03:01:37.246Z,102777.00
2018-05-06T03:04:04.903Z,102777.70
2018-05-06T03:06:32.530Z,102768.59
2018-05-06T03:09:00.135Z,102768.52
2018-05-06T03:11:27.759Z,102758.13
2018-05-06T03:13:55.450Z,102768.05
2018-05-06T03:16:23.083Z,102767.60
2018-05-06T03:18:50.695Z,102776.20
2018-05-06T03:21:18.342Z,102778.33
2018-05-06T03:23:46.007Z,102778.23
2018-05-06T03:26:13.638Z,102778.19
2018-05-06T03:28:41.330Z,102775.31
2018-05-06T03:31:08.990Z,102780.47
2018-05-06T03:33:36.618Z,102780.81
2018-05-06T03:36:04.324Z,102781.18
2018-05-06T03:38:31.951Z,102781.41
2018-05-06T03:40:59.566Z,102785.03
2018-05-06T03:43:27.192Z,102785.52
2018-05-06T03:45:54.797Z,102783.38
2018-05-06T03:48:22.422Z,102786.89
2018-05-06T03:50:50.027Z,102779.81
2018-05-06T03:53:17.658Z,102780.62
2018-05-06T03:55:45.306Z,102784.53
2018-05-06T03:58:24.890Z,102785.01
2018-05-06T04:00:52.498Z,102783.42
2018-05-06T04:03:20.263Z,102788.61
2018-05-06T04:05:47.950Z,102785.22
2018-05-06T04:08:15.573Z,102781.36
2018-05-06T04:10:44.798Z,102783.31
2018-05-06T04:13:12.461Z,102787.55
2018-05-06T04:15:40.063Z,102786.75
2018-05-06T04:18:07.792Z,102778.47
2018-05-06T04:20:35.394Z,102784.91
2018-05-06T04:23:03.015Z,102787.66
2018-05-06T04:25:30.638Z,102786.57
2018-05-06T04:27:58.242Z,102784.97
2018-05-06T04:30:25.882Z,102780.27
2018-05-06T04:32:53.490Z,102790.09
2018-05-06T04:35:21.118Z,102786.44
2018-05-06T04:37:48.734Z,102787.79
2018-05-06T04:40:16.363Z,102788.08
2018-05-06T04:42:43.974Z,102792.52
2018-05-06T04:45:11.606Z,102796.12
2018-05-06T04:47:39.335Z,102796.27
2018-05-06T04:50:07.002Z,102799.87
2018-05-06T04:52:34.614Z,102800.94
2018-05-06T04:55:02.322Z,102801.91
2018-05-06T04:57:29.990Z,102799.46
2018-05-06T04:59:57.618Z,102797.50
2018-05-06T05:02:25.226Z,102796.95
2018-05-06T05:04:52.860Z,102799.20
2018-05-06T05:07:20.531Z,102801.92
2018-05-06T05:09:48.195Z,102798.20
2018-05-06T05:12:15.798Z,102801.94
2018-05-06T05:14:43.425Z,102809.58
2018-05-06T05:17:11.038Z,102806.50
2018-05-06T05:19:38.666Z,102800.44
2018-05-06T05:22:06.305Z,102794.89
2018-05-06T05:24:33.966Z,102796.22
2018-05-06T05:27:01.631Z,102799.81
2018-05-06T05:29:29.259Z,102798.67
2018-05-06T05:31:56.954Z,102796.67
2018-05-06T05:34:24.632Z,102806.41
2018-05-06T05:36:52.271Z,102798.92
2018-05-06T05:39:19.875Z,102795.72
2018-05-06T05:41:47.603Z,102798.62
2018-05-06T05:44:15.267Z,102801.06
2018-05-06T05:46:42.930Z,102803.55
2018-05-06T05:49:10.538Z,102800.02
2018-05-06T05:51:38.258Z,102801.67
2018-05-06T05:54:05.871Z,102803.73
2018-05-06T05:56:33.502Z,102803.27
2018-05-06T05:59:01.111Z,102809.27
2018-05-06T06:01:28.811Z,102805.19
2018-05-06T06:03:56.419Z,102806.34
2018-05-06T06:06:24.051Z,102813.88
2018-05-06T06:08:51.654Z,102807.94
2018-05-06T06:11:19.287Z,102811.16
2018-05-06T06:13:46.898Z,102816.19
2018-05-06T06:16:14.531Z,102812.02
2018-05-06T06:18:42.137Z,102812.21
2018-05-06T06:21:09.767Z,102812.31
2018-05-06T06:23:37.464Z,102816.37
2018-05-06T06:26:05.128Z,102815.13
2018-05-06T06:28:32.787Z,102817.85
2018-05-06T06:31:00.419Z,102822.67
2018-05-06T06:33:28.023Z,102821.35
2018-05-06T06:35:55.657Z,102830.87
2018-05-06T06:38:23.293Z,102828.67
2018-05-06T06:40:50.905Z,102834.67
2018-05-06T06:43:18.531Z,102835.55
2018-05-06T06:45:46.217Z,102831.59
2018-05-06T06:48:13.849Z,102832.02
2018-05-06T06:50:41.459Z,102825.91
2018-05-06T06:53:09.110Z,102831.57
2018-05-06T06:55:36.766Z,102835.91
2018-05-06T06:58:04.397Z,102836.78
2018-05-06T07:00:32.001Z,102839.39
2018-05-06T07:02:59.627Z,102835.50
2018-05-06T07:05:27.300Z,102841.22
2018-05-06T07:07:54.926Z,102838.53
2018-05-06T07:10:22.538Z,102843.74
2018-05-06T07:12:50.166Z,102838.48
2018-05-06T07:15:17.769Z,102841.91
2018-05-06T07:17:45.395Z,102841.96
2018-05-06T07:20:12.997Z,102846.70
2018-05-06T07:22:40.644Z,102839.22
2018-05-06T07:25:08.310Z,102838.28
2018-05-06T07:27:35.947Z,102839.48
2018-05-06T07:30:03.638Z,102841.06
2018-05-06T07:32:31.275Z,102838.70
2018-05-06T07:34:58.968Z,102832.86
2018-05-06T07:37:26.631Z,102829.23
2018-05-06T07:39:54.234Z,102830.84
2018-05-06T07:42:21.951Z,102830.66
2018-05-06T07:44:49.622Z,102823.91
2018-05-06T07:47:17.279Z,102825.50
2018-05-06T07:49:44.890Z,102813.20
2018-05-06T07:52:12.498Z,102814.39
2018-05-06T07:54:40.159Z,102814.22
2018-05-06T07:57:07.823Z,102813.56
2018-05-06T07:59:35.450Z,102819.93
2018-05-06T08:02:03.152Z,102823.64
2018-05-06T08:04:30.779Z,102820.77
2018-05-06T08:06:58.388Z,102819.73
2018-05-06T08:09:26.035Z,102820.00
2018-05-06T08:11:53.699Z,102817.95
2018-05-06T08:14:21.333Z,102821.22
2018-05-06T08:16:49.027Z,102814.39
2018-05-06T08:19:16.653Z,102816.73
2018-05-06T08:21:44.278Z,102817.78
2018-05-06T08:24:12.011Z,102817.06
2018-05-06T08:26:39.618Z,102821.16
2018-05-06T08:29:07.250Z,102820.42
2018-05-06T08:31:34.855Z,102821.38
2018-05-06T08:34:02.483Z,102814.88
2018-05-06T08:36:30.118Z,102813.19
2018-05-06T08:38:57.787Z,102816.77
2018-05-06T08:41:25.452Z,102814.67
2018-05-06T08:43:53.113Z,102813.46
2018-05-06T08:46:20.721Z,102814.00
2018-05-06T08:48:48.363Z,102812.31
2018-05-06T08:51:15.993Z,102812.84
2018-05-06T08:53:43.622Z,102806.32
2018-05-06T08:56:11.234Z,102805.06
2018-05-06T08:58:38.862Z,102802.08
2018-05-06T09:01:06.467Z,102797.34
2018-05-06T09:03:34.099Z,102804.44
2018-05-06T09:06:01.769Z,102808.00
2018-05-06T09:08:29.431Z,102810.72
2018-05-06T09:10:57.062Z,102810.80
2018-05-06T09:13:24.750Z,102813.05
2018-05-06T09:15:52.380Z,102814.41
2018-05-06T09:18:20.090Z,102807.00
2018-05-06T09:20:47.742Z,102803.48
2018-05-06T09:23:15.350Z,102806.58
2018-05-06T09:25:43.014Z,102804.02
2018-05-06T09:28:10.626Z,102795.28
2018-05-06T09:30:38.255Z,102810.27
2018-05-06T09:33:05.858Z,102804.19
2018-05-06T09:35:33.486Z,102807.32
2018-05-06T09:38:01.104Z,102809.97
2018-05-06T09:40:28.838Z,102807.34
2018-05-06T09:42:56.439Z,102809.97
2018-05-06T09:45:24.162Z,102813.51
2018-05-06T09:47:51.804Z,102816.63
2018-05-06T09:50:19.435Z,102816.24
2018-05-06T09:52:47.151Z,102814.09
2018-05-06T09:55:14.818Z,102813.72
2018-05-06T09:57:42.423Z,102813.77
2018-05-06T10:00:10.051Z,102812.02
2018-05-06T10:02:37.654Z,102813.79
2018-05-06T10:05:05.289Z,102801.52
2018-05-06T10:07:32.918Z,102798.92
2018-05-06T10:10:00.582Z,102792.77
2018-05-06T10:12:28.203Z,102790.61
2018-05-06T10:14:55.830Z,102784.89
2018-05-06T10:17:23.471Z,102791.08
2018-05-06T10:19:51.130Z,102787.59
2018-05-06T10:22:18.848Z,102789.35
2018-05-06T10:24:46.422Z,102787.61
2018-05-06T10:27:14.219Z,102782.34
2018-05-06T10:29:41.890Z,102781.06
2018-05-06T10:32:09.514Z,102780.19
2018-05-06T10:34:37.123Z,102775.83
2018-05-06T10:37:04.746Z,102769.67
2018-05-06T10:39:32.435Z,102774.52
2018-05-06T10:42:00.095Z,102770.14
2018-05-06T10:44:27.781Z,102761.37
2018-05-06T10:46:55.412Z,102758.27
2018-05-06T10:49:23.051Z,102760.05
2018-05-06T10:51:50.670Z,102758.30
2018-05-06T10:54:18.271Z,102745.09
2018-05-06T10:56:45.971Z,102745.12
2018-05-06T10:59:13.635Z,102746.42
2018-05-06T11:01:41.260Z,102735.41
2018-05-06T11:04:08.953Z,102730.59
2018-05-06T11:06:36.619Z,102729.27
2018-05-06T11:09:04.222Z,102728.83
2018-05-06T11:11:31.947Z,102723.12
2018-05-06T11:13:59.549Z,102729.28
2018-05-06T11:16:27.269Z,102720.91
2018-05-06T11:18:54.874Z,102719.59
2018-05-06T11:21:22.594Z,102718.27
2018-05-06T11:23:50.195Z,102712.09
2018-05-06T11:26:17.859Z,102716.08
2018-05-06T11:28:45.446Z,102713.41
2018-05-06T11:31:13.143Z,102722.66
2018-05-06T11:33:40.867Z,102711.65
2018-05-06T11:36:08.471Z,102708.13
2018-05-06T11:38:36.131Z,102710.77
2018-05-06T11:41:03.855Z,102703.72
2018-05-06T11:43:31.442Z,102709.88
2018-05-06T11:45:59.047Z,102709.42
2018-05-06T11:48:26.777Z,102714.73
2018-05-06T11:50:54.394Z,102710.75
2018-05-06T11:53:22.018Z,102708.97
2018-05-06T11:55:49.671Z,102704.53
2018-05-06T11:58:17.337Z,102708.45
2018-05-06T12:00:44.952Z,102708.87
2018-05-06T12:03:12.583Z,102703.13
2018-05-06T12:05:40.210Z,102698.73
2018-05-06T12:08:07.842Z,102702.66
2018-05-06T12:10:35.537Z,102695.17
2018-05-06T12:13:03.209Z,102698.27
2018-05-06T12:15:30.811Z,102688.54
2018-05-06T12:17:58.444Z,102689.87
2018-05-06T12:20:26.051Z,102689.86
2018-05-06T12:22:53.682Z,102686.73
2018-05-06T12:25:21.286Z,102680.56
2018-05-06T12:27:48.918Z,102690.27
2018-05-06T12:30:16.530Z,102679.26
2018-05-06T12:32:44.159Z,102681.88
2018-05-06T12:35:11.796Z,102669.95
2018-05-06T12:37:39.426Z,102677.91
2018-05-06T12:40:07.027Z,102675.67
2018-05-06T12:42:34.668Z,102663.31
2018-05-06T12:45:02.311Z,102662.89
2018-05-06T12:47:29.918Z,102665.12
2018-05-06T12:49:57.543Z,102656.74
2018-05-06T12:52:25.191Z,102655.85
2018-05-06T12:54:52.858Z,102651.41
2018-05-06T12:57:20.459Z,102654.48
2018-05-06T12:59:48.091Z,102654.44
2018-05-06T13:02:15.749Z,102646.52
2018-05-06T13:04:43.400Z,102643.82
2018-05-06T13:07:11.063Z,102638.99
2018-05-06T13:09:38.726Z,102635.88
2018-05-06T13:12:06.339Z,102642.05
2018-05-06T13:14:33.961Z,102635.45
2018-05-06T13:17:01.567Z,102634.56
2018-05-06T13:19:29.195Z,102630.13
2018-05-06T13:21:56.797Z,102623.92
2018-05-06T13:24:24.422Z,102621.70
2018-05-06T13:26:52.030Z,102631.39
2018-05-06T13:29:19.726Z,102631.00
2018-05-06T13:31:47.331Z,102623.50
2018-05-06T13:34:14.954Z,102621.31
2018-05-06T13:36:42.606Z,102614.25
2018-05-06T13:39:10.269Z,102612.93
2018-05-06T13:41:37.931Z,102612.46
2018-05-06T13:44:05.597Z,102609.33
2018-05-06T13:46:33.186Z,102611.55
2018-05-06T13:49:00.823Z,102604.05
2018-05-06T13:51:28.422Z,102596.06
2018-05-06T13:53:56.056Z,102592.54
2018-05-06T13:56:23.662Z,102592.54
2018-05-06T13:58:51.265Z,102585.92
2018-05-06T14:01:18.898Z,102585.47
2018-05-06T14:03:46.555Z,102584.56
2018-05-06T14:06:14.170Z,102586.76
2018-05-06T14:08:41.806Z,102588.53
2018-05-06T14:11:09.476Z,102592.52
2018-05-06T14:13:37.079Z,102583.67
2018-05-06T14:16:04.707Z,102578.41
2018-05-06T14:18:32.313Z,102579.73
2018-05-06T14:20:59.943Z,102578.41
2018-05-06T14:23:27.554Z,102576.69
2018-05-06T14:25:55.247Z,102567.44
2018-05-06T14:28:22.853Z,102570.97
2018-05-06T14:30:50.478Z,102567.02
2018-05-06T14:33:18.090Z,102566.09
2018-05-06T14:35:45.786Z,102566.09
2018-05-06T14:38:13.386Z,102563.90
2018-05-06T14:40:41.115Z,102556.38
2018-05-06T14:43:08.775Z,102564.77
2018-05-06T14:45:36.402Z,102557.28
2018-05-06T14:48:15.720Z,102561.69
2018-05-06T14:50:43.442Z,102554.20
2018-05-06T14:53:11.103Z,102563.05
2018-05-06T14:55:38.734Z,102561.32
2018-05-06T14:58:06.427Z,102552.48
2018-05-06T15:00:34.058Z,102549.86
2018-05-06T15:03:01.658Z,102550.28
2018-05-06T15:05:29.282Z,102552.91
2018-05-06T15:07:56.899Z,102543.20
2018-05-06T15:10:24.576Z,102547.63
2018-05-06T15:12:52.194Z,102545.02
2018-05-06T15:15:19.803Z,102539.72
2018-05-06T15:17:47.434Z,102545.45
2018-05-06T15:20:15.034Z,102541.94
2018-05-06T15:22:42.670Z,102540.64
2018-05-06T15:25:10.275Z,102542.82
2018-05-06T15:27:37.967Z,102540.17
2018-05-06T15:30:05.630Z,102539.30
2018-05-06T15:32:33.260Z,102541.08
2018-05-06T15:35:00.870Z,102536.69
2018-05-06T15:37:28.498Z,102536.30
2018-05-06T15:39:56.327Z,102537.22
2018-05-06T15:42:23.962Z,102530.63
2018-05-06T15:44:51.570Z,102529.81
2018-05-06T15:47:19.267Z,102528.06
2018-05-06T15:49:46.898Z,102524.58
2018-05-06T15:52:14.594Z,102526.78
2018-05-06T15:54:42.198Z,102520.19
2018-05-06T15:57:09.923Z,102522.38
2018-05-06T15:59:37.534Z,102516.69
2018-05-06T16:02:17.019Z,102521.09
2018-05-06T16:04:44.682Z,102515.83
2018-05-06T16:07:12.346Z,102513.17
2018-05-06T16:09:39.959Z,102520.27
2018-05-06T16:12:07.668Z,102515.89
2018-05-06T16:14:35.274Z,102512.40
2018-05-06T16:17:02.994Z,102512.38
2018-05-06T16:19:30.653Z,102508.88
2018-05-06T16:21:58.318Z,102512.40
2018-05-06T16:24:25.986Z,102514.17
2018-05-06T16:26:53.649Z,102514.63
2018-05-06T16:29:21.274Z,102513.72
2018-05-06T16:31:48.875Z,102515.41
2018-05-06T16:34:16.502Z,102507.79
2018-05-06T16:36:44.110Z,102505.01
2018-05-06T16:39:11.738Z,102505.30
2018-05-06T16:41:39.413Z,102511.28
2018-05-06T16:44:07.077Z,102511.93
2018-05-06T16:46:34.686Z,102506.41
2018-05-06T16:49:02.319Z,102510.64
2018-05-06T16:51:29.927Z,102499.94
2018-05-06T16:53:57.554Z,102505.64
2018-05-06T16:56:25.187Z,102502.94
2018-05-06T16:58:52.950Z,102508.20
2018-05-06T17:01:20.579Z,102497.15
2018-05-06T17:03:48.274Z,102496.20
2018-05-06T17:06:15.875Z,102502.31
2018-05-06T17:08:43.601Z,102496.53
2018-05-06T17:11:11.207Z,102503.20
2018-05-06T17:13:38.839Z,102500.09
2018-05-06T17:16:06.487Z,102502.73
2018-05-06T17:18:34.151Z,102504.54
2018-05-06T17:21:01.810Z,102508.66
2018-05-06T17:23:29.558Z,102506.78
2018-05-06T17:25:57.242Z,102504.55
2018-05-06T17:28:24.866Z,102506.67
2018-05-06T17:30:52.474Z,102507.41
2018-05-06T17:33:20.099Z,102501.92
2018-05-06T17:35:47.786Z,102509.53
2018-05-06T17:38:15.390Z,102512.68
2018-05-06T17:40:43.109Z,102516.67
2018-05-06T17:43:10.710Z,102516.25
2018-05-06T17:45:38.535Z,102510.55
2018-05-06T17:48:06.203Z,102518.02
2018-05-06T17:50:33.862Z,102515.38
2018-05-06T17:53:01.475Z,102516.23
2018-05-06T17:55:29.098Z,102513.55
2018-05-06T17:57:56.750Z,102511.77
2018-05-06T18:00:24.380Z,102512.60
2018-05-06T18:02:52.074Z,102517.41
2018-05-06T18:05:19.706Z,102520.88
2018-05-06T18:07:47.314Z,102514.72
2018-05-06T18:10:14.946Z,102519.50
2018-05-06T18:12:42.623Z,102515.95
2018-05-06T18:15:10.250Z,102516.34
2018-05-06T18:17:38.135Z,102518.91
2018-05-06T18:20:05.818Z,102524.56
2018-05-06T18:22:33.544Z,102522.31
2018-05-06T18:25:01.126Z,102526.22
2018-05-06T18:27:28.731Z,102519.14
2018-05-06T18:29:56.462Z,102513.82
2018-05-06T18:32:24.071Z,102520.38
2018-05-06T18:34:51.698Z,102519.00
2018-05-06T18:37:19.302Z,102522.00
2018-05-06T18:39:47.011Z,102523.28
2018-05-06T18:42:14.615Z,102519.69
2018-05-06T18:44:42.246Z,102519.18
2018-05-06T18:47:09.898Z,102518.64
2018-05-06T18:49:37.558Z,102516.84
2018-05-06T18:52:05.223Z,102521.61
2018-05-06T18:54:32.858Z,102521.09
2018-05-06T18:57:00.485Z,102515.35
2018-05-06T18:59:28.110Z,102521.84
2018-05-06T19:01:55.742Z,102514.70
2018-05-06T19:04:23.430Z,102521.59
2018-05-06T19:06:51.061Z,102530.26
2018-05-06T19:09:18.758Z,102531.92
2018-05-06T19:11:46.423Z,102534.89
2018-05-06T19:14:14.083Z,102535.22
2018-05-06T19:16:41.710Z,102534.69
2018-05-06T19:19:09.402Z,102540.23
2018-05-06T19:21:37.026Z,102539.26
2018-05-06T19:24:04.633Z,102535.22
2018-05-06T19:26:32.296Z,102538.17
2018-05-06T19:28:59.899Z,102535.03
2018-05-06T19:31:27.618Z,102535.32
2018-05-06T19:33:55.222Z,102534.77
2018-05-06T19:36:22.846Z,102530.27
2018-05-06T19:38:50.606Z,102524.91
2018-05-06T19:41:18.235Z,102523.88
2018-05-06T19:43:45.935Z,102525.06
2018-05-06T19:46:13.578Z,102526.28
2018-05-06T19:48:41.208Z,102530.57
2018-05-06T19:51:08.844Z,102529.17
2018-05-06T19:53:36.478Z,102532.14
2018-05-06T19:56:04.105Z,102533.28
2018-05-06T19:58:31.718Z,102529.70
2018-05-06T20:00:59.347Z,102525.67
2018-05-06T20:03:26.955Z,102528.64
2018-05-06T20:05:54.554Z,102523.73
2018-05-06T20:08:22.257Z,102528.84
2018-05-06T20:10:49.857Z,102517.82
2018-05-06T20:13:17.480Z,102529.91
2018-05-06T20:15:45.134Z,102529.36
2018-05-06T20:18:12.814Z,102530.08
2018-05-06T20:20:40.558Z,102525.13
2018-05-06T20:23:08.205Z,102527.98
2018-05-06T20:25:35.863Z,102519.05
2018-05-06T20:28:03.495Z,102519.80
2018-05-06T20:30:31.100Z,102520.95
2018-05-06T20:32:58.726Z,102525.10
2018-05-06T20:35:26.439Z,102530.12
2018-05-06T20:37:54.063Z,102528.65
2018-05-06T20:40:21.760Z,102532.83
2018-05-06T20:42:49.402Z,102535.66
2018-05-06T20:45:17.006Z,102530.68
2018-05-06T20:47:44.635Z,102532.28
2018-05-06T20:50:12.238Z,102534.30
2018-05-06T20:52:39.862Z,102538.91
2018-05-06T20:55:07.466Z,102534.41
2018-05-06T20:57:35.194Z,102529.38
2018-05-06T21:00:02.865Z,102529.59
2018-05-06T21:02:30.527Z,102530.70
2018-05-06T21:04:58.139Z,102530.09
2018-05-06T21:07:25.764Z,102527.77
2018-05-06T21:09:53.371Z,102525.48
2018-05-06T21:12:20.994Z,102524.91
2018-05-06T21:14:48.603Z,102523.41
2018-05-06T21:17:16.254Z,102518.93
2018-05-06T21:19:43.858Z,102517.94
2018-05-06T21:22:11.459Z,102521.35
2018-05-06T21:24:39.083Z,102512.58
2018-05-06T21:27:06.698Z,102519.89
2018-05-06T21:29:34.397Z,102511.98
2018-05-06T21:32:02.004Z,102506.62
2018-05-06T21:34:29.638Z,102507.35
2018-05-06T21:36:57.246Z,102510.20
2018-05-06T21:39:24.878Z,102517.50
2018-05-06T21:41:52.507Z,102513.02
2018-05-06T21:44:20.134Z,102512.01
2018-05-06T21:46:47.830Z,102513.16
2018-05-06T21:49:15.458Z,102513.45
2018-05-06T21:51:43.063Z,102517.59
2018-05-06T21:54:10.686Z,102509.55
2018-05-06T21:56:38.314Z,102516.76
2018-05-06T21:59:05.938Z,102515.22
2018-05-06T22:01:33.551Z,102513.25
2018-05-06T22:04:01.263Z,102513.04
2018-05-06T22:06:28.870Z,102517.28
2018-05-06T22:08:56.497Z,102517.20
2018-05-06T22:11:24.107Z,102518.86
2018-05-06T22:13:51.731Z,102516.19
2018-05-06T22:16:19.340Z,102516.48
2018-05-06T22:18:46.965Z,102515.06
2018-05-06T22:21:14.570Z,102514.87
2018-05-06T22:23:42.199Z,102512.49
2018-05-06T22:26:09.808Z,102512.30
2018-05-06T22:28:37.494Z,102508.60
2018-05-06T22:31:05.098Z,102507.98
2018-05-06T22:33:32.806Z,102511.22
2018-05-06T22:36:00.467Z,102512.28
2018-05-06T22:38:28.135Z,102510.77
2018-05-06T22:40:55.767Z,102509.68
2018-05-06T22:43:23.451Z,102503.41
2018-05-06T22:45:51.114Z,102503.75
2018-05-06T22:48:18.714Z,102504.03
2018-05-06T22:50:46.338Z,102499.53
2018-05-06T22:53:14.003Z,102497.23
2018-05-06T22:55:42.378Z,102497.95
2018-05-06T22:58:09.982Z,102496.11
2018-05-06T23:00:37.714Z,102500.35
2018-05-06T23:03:05.322Z,102500.27
2018-05-06T23:05:32.969Z,102499.33
2018-05-06T23:08:00.694Z,102497.95
2018-05-06T23:10:28.358Z,102500.91
2018-05-06T23:12:55.967Z,102499.95
2018-05-06T23:15:23.682Z,102503.73
2018-05-06T23:17:51.290Z,102499.72
2018-05-06T23:20:18.923Z,102500.02
2018-05-06T23:22:46.566Z,102499.05
2018-05-06T23:25:14.234Z,102497.64
2018-05-06T23:27:41.827Z,102494.44
2018-05-06T23:30:09.555Z,102493.81
2018-05-06T23:32:37.166Z,102493.11
2018-05-06T23:35:04.790Z,102497.18
2018-05-06T23:37:32.393Z,102498.66
2018-05-06T23:40:00.037Z,102496.73
2018-05-06T23:42:27.642Z,102497.83
2018-05-06T23:44:55.270Z,102508.05
2018-05-06T23:47:22.882Z,102503.53
2018-05-06T23:49:50.494Z,102508.98
2018-05-06T23:52:18.211Z,102509.66
2018-05-06T23:54:45.852Z,102509.97
2018-05-06T23:57:13.539Z,102512.40
2018-05-06T23:59:41.151Z,102513.14
